Arklow Spray — C6VK8 — position and weather

sailwx.info

Track history (hours):
 
Tides and Currents Weather Stations Pressure Air Temp Water Temp Dewpoint Dewpoint Depression Visibility Wind Speed Wind Dir Waves Ship Positions

Arklow Spray

Last reported at 2015-Sep-01 03:08 UTC. Time now 2015-Sep-02 00:23 UTC.
Position N 50°35' E 000°17'.

Length 16 m; draft 4.6 m.

Type: Pilot. MMSI: 309914000.

Date/timePositionNaut miles runAvg speedWind from/ knotsBaromVisibWave heightAir tempDewpointWater temp
2015-Sep-01 03:08N 50°35' E 000°17'711.4
2015-Sep-01 02:30N 50°37' E 000°28'1010.4
2015-Sep-01 01:33N 50°42' E 000°42'34 9.6
2015-Aug-31 22:04N 51°02' E 001°24'713.3
2015-Aug-31 21:34N 51°06' E 001°32'1413.7
2015-Aug-31 20:33N 51°16' E 001°48'1211.9
2015-Aug-31 19:33N 51°25' E 002°00'1010.4
2015-Aug-31 18:32N 51°21' E 002°16'1010.2
2015-Aug-31 17:33N 51°23' E 002°32'10 9.6
2015-Aug-31 16:33N 51°22' E 002°47'9 9.4
2015-Aug-31 15:33N 51°22' E 003°02'10 8.6
2015-Aug-31 14:22N 51°24' E 003°18'6 7.8
2015-Aug-31 13:33N 51°25' E 003°28'7 6.5
2015-Aug-31 12:33N 51°26' E 003°38'3 2.6
2015-Aug-31 11:31N 51°27' E 003°42'0 0.0
2015-Aug-31 10:31N 51°27' E 003°42'0 0.0
2015-Aug-31 09:31N 51°27' E 003°42'0 0.0
2015-Aug-31 08:31N 51°27' E 003°42'0 0.0
2015-Aug-31 07:31N 51°27' E 003°42'0 0.0
2015-Aug-31 06:31N 51°27' E 003°42'0 0.0
2015-Aug-31 05:31N 51°27' E 003°42'0 0.0
2015-Aug-31 04:31N 51°27' E 003°42'0 0.0
2015-Aug-31 03:31N 51°27' E 003°42'0 0.0
2015-Aug-31 02:25N 51°27' E 003°42'0 0.0
2015-Aug-31 01:31N 51°27' E 003°42'0 0.0
2015-Aug-31 00:31N 51°27' E 003°42'0 0.0
2015-Aug-30 23:31N 51°27' E 003°42'0 0.0
2015-Aug-30 22:31N 51°27' E 003°42'0 0.0
2015-Aug-30 21:25N 51°27' E 003°42'0 0.0
2015-Aug-30 20:31N 51°27' E 003°42'0 0.0
2015-Aug-30 19:31N 51°27' E 003°42'0 0.0
2015-Aug-30 18:31N 51°27' E 003°42'0 0.0
2015-Aug-30 17:31N 51°27' E 003°42'0 0.0
2015-Aug-30 16:31N 51°27' E 003°42'0 0.0
2015-Aug-30 15:31N 51°27' E 003°42'0 0.0
2015-Aug-30 14:31N 51°27' E 003°42'0 0.0
2015-Aug-30 13:31N 51°27' E 003°42'0 0.0
2015-Aug-30 12:34N 51°27' E 003°42'0 0.0
2015-Aug-30 11:30N 51°27' E 003°42'0 0.0
2015-Aug-30 10:30N 51°27' E 003°42'0 0.0
2015-Aug-30 09:33N 51°27' E 003°42'0 0.0
2015-Aug-30 08:33N 51°27' E 003°42'0 0.0
2015-Aug-30 07:33N 51°27' E 003°42'0 0.0
2015-Aug-30 06:33N 51°27' E 003°42'0 0.0
2015-Aug-30 05:18N 51°27' E 003°42'0 0.0
2015-Aug-30 04:33N 51°27' E 003°42'0 0.0
2015-Aug-30 03:33N 51°27' E 003°42'0 0.0
2015-Aug-30 02:33N 51°27' E 003°42'0 0.0
2015-Aug-30 01:30N 51°27' E 003°42'0 0.0
2015-Aug-30 00:33N 51°27' E 003°42'0 0.0
2015-Aug-29 23:33N 51°27' E 003°42'0 0.0
2015-Aug-29 22:30N 51°27' E 003°42'0 0.0
2015-Aug-29 21:30N 51°27' E 003°42'0 0.0
2015-Aug-29 20:30N 51°27' E 003°42'0 0.0
2015-Aug-29 19:33N 51°27' E 003°42'0 0.0
2015-Aug-29 18:33N 51°27' E 003°42'0 0.0
2015-Aug-29 17:33N 51°27' E 003°42'0 0.0
2015-Aug-29 16:33N 51°27' E 003°42'0 0.0
2015-Aug-29 15:30N 51°27' E 003°42'0 0.0
2015-Aug-29 13:29N 51°27' E 003°42'0 0.0
2015-Aug-29 12:32N 51°27' E 003°42'0 0.0
2015-Aug-29 11:29N 51°27' E 003°42'0 0.0
2015-Aug-29 10:32N 51°27' E 003°42'0 0.0
2015-Aug-29 09:29N 51°27' E 003°42'0 0.0
2015-Aug-29 08:32N 51°27' E 003°42'0 0.0
2015-Aug-29 07:32N 51°27' E 003°42'0 0.0
2015-Aug-29 06:28N 51°27' E 003°42'0 0.0
2015-Aug-29 05:32N 51°27' E 003°42'0 0.0
2015-Aug-29 04:31N 51°27' E 003°42'0 0.0
2015-Aug-29 03:31N 51°27' E 003°42'0 0.0
2015-Aug-29 02:32N 51°27' E 003°42'1 1.3
2015-Aug-29 01:33N 51°27' E 003°40'9 9.1
2015-Aug-29 00:33N 51°23' E 003°53'6 6.0
2015-Aug-28 23:33N 51°25' E 004°02'7 7.1
2015-Aug-28 22:33N 51°23' E 004°13'7 7.1
2015-Aug-28 21:32N 51°17' E 004°20'2 1.6
2015-Aug-28 20:33N 51°15' E 004°21'2 1.5
2015-Aug-28 19:32N 51°15' E 004°24'0 0.0
2015-Aug-28 18:32N 51°15' E 004°24'0 0.0
2015-Aug-28 17:32N 51°15' E 004°24'0 0.0
2015-Aug-28 16:32N 51°15' E 004°24'0 0.0
2015-Aug-28 15:32N 51°15' E 004°24'0 0.0
2015-Aug-28 14:32N 51°15' E 004°24'0 0.0
2015-Aug-28 13:32N 51°15' E 004°24'0 0.0
2015-Aug-28 12:32N 51°15' E 004°24'0 0.0
2015-Aug-28 11:32N 51°15' E 004°24'0 0.0
2015-Aug-28 10:32N 51°15' E 004°24'0 0.0
2015-Aug-28 09:32N 51°15' E 004°24'0 0.0
2015-Aug-28 08:32N 51°15' E 004°24'0 0.0
2015-Aug-28 07:32N 51°15' E 004°24'0 0.3
2015-Aug-28 06:32N 51°15' E 004°24'0 0.0
2015-Aug-28 05:32N 51°15' E 004°24'0 0.0
2015-Aug-28 04:32N 51°15' E 004°24'0 0.0
2015-Aug-28 03:32N 51°15' E 004°24'0 0.0
2015-Aug-28 02:32N 51°15' E 004°24'0 0.0
2015-Aug-28 01:32N 51°15' E 004°24'0 0.0
2015-Aug-28 00:32N 51°15' E 004°24'0 0.0
2015-Aug-27 23:32N 51°15' E 004°24'0 0.5
2015-Aug-27 22:34N 51°15' E 004°23'3 2.8
2015-Aug-27 21:34N 51°17' E 004°20'5 4.9
2015-Aug-27 20:33N 51°21' E 004°16'9 8.5
2015-Aug-27 19:33N 51°23' E 004°02'6 5.5
2015-Aug-27 18:33N 51°21' E 003°54'8 8.1
2015-Aug-27 17:33N 51°24' E 003°42'8 8.1
2015-Aug-27 16:33N 51°24' E 003°29'8 8.0
2015-Aug-27 15:32N 51°23' E 003°16'9 9.2
2015-Aug-27 14:33N 51°22' E 003°01'1010.1
2015-Aug-27 13:33N 51°22' E 002°45'6 4.7
2015-Aug-27 12:15N 51°22' E 002°35'4 5.5
2015-Aug-27 11:33N 51°22' E 002°29'1211.6
2015-Aug-27 10:33N 51°16' E 002°13'1212.2
2015-Aug-27 09:33N 51°10' E 001°56'1312.6
2015-Aug-27 08:33N 51°03' E 001°40'99 8.0
2015-Aug-26 20:09N 50°37' W 000°51'6 9.5
2015-Aug-26 19:33N 50°41' W 000°57'10 9.9
2015-Aug-26 18:33N 50°46' W 001°10'13 0.5
2015-Aug-25 18:23N 50°55' W 001°27'0 0.0
2015-Aug-25 14:26N 50°55' W 001°27'1 1.0
2015-Aug-25 13:33N 50°54' W 001°25'8 8.3
2015-Aug-25 12:33N 50°47' W 001°20'5 0.9
2015-Aug-25 07:34N 50°44' W 001°26'9 8.8
2015-Aug-25 06:33N 50°39' W 001°37'1111.1
2015-Aug-25 05:31N 50°31' W 001°49'40 8.1
2015-Aug-25 00:33N 50°19' W 002°50'6 6.2
2015-Aug-24 23:34N 50°17' W 002°59'6 6.1
2015-Aug-24 22:34N 50°15' W 003°08'7 6.6
2015-Aug-24 21:34N 50°14' W 003°18'8 6.6
2015-Aug-24 20:20N 50°12' W 003°30'26 5.5
2015-Aug-24 15:34N 50°22' W 004°08'1 0.5
2015-Aug-24 14:31N 50°22' W 004°07'0 0.0
2015-Aug-24 13:28N 50°22' W 004°07'0 0.0
2015-Aug-24 12:34N 50°22' W 004°07'0 0.0
2015-Aug-24 11:34N 50°22' W 004°07'0 0.0
2015-Aug-24 10:33N 50°22' W 004°07'0 0.0
2015-Aug-24 09:34N 50°22' W 004°07'0 0.0
2015-Aug-24 08:33N 50°22' W 004°07'0 0.0
2015-Aug-24 07:34N 50°22' W 004°07'0 0.0
2015-Aug-24 06:20N 50°22' W 004°07'0 0.0
2015-Aug-24 05:33N 50°22' W 004°07'0 0.3
2015-Aug-24 04:34N 50°22' W 004°07'126 5.6
2015-Aug-23 06:06N 52°11' W 005°48'711.5
2015-Aug-23 05:31N 52°17' W 005°46'12010.0
2015-Aug-22 17:33N 54°16' W 005°15'1010.1
2015-Aug-22 16:33N 54°26' W 005°15'1010.3
2015-Aug-22 15:33N 54°35' W 005°22'1010.0
2015-Aug-22 14:34N 54°43' W 005°33'1010.0
2015-Aug-22 13:34N 54°40' W 005°50'4 3.7
2015-Aug-22 12:29N 54°37' W 005°54'0 0.0
2015-Aug-22 11:32N 54°37' W 005°54'0 0.0
2015-Aug-22 10:32N 54°37' W 005°54'0 0.0
2015-Aug-22 09:29N 54°37' W 005°54'0 0.0
2015-Aug-22 08:32N 54°37' W 005°54'0 0.0
2015-Aug-22 07:32N 54°37' W 005°54'0 0.0
2015-Aug-22 06:29N 54°37' W 005°54'0 0.0
2015-Aug-22 05:32N 54°37' W 005°54'0 0.0
2015-Aug-22 04:32N 54°37' W 005°54'0 0.0
2015-Aug-22 03:33N 54°37' W 005°54'  
Track history (hours):
 
Tides and Currents Weather Stations Pressure Air Temp Water Temp Dewpoint Dewpoint Depression Visibility Wind Speed Wind Dir Waves Ship Positions

Arklow Spray

Last reported at 2015-Sep-01 03:08 UTC. Time now 2015-Sep-02 00:23 UTC.
Position N 50°35' E 000°17'.

Length 16 m; draft 4.6 m.

Type: Pilot. MMSI: 309914000.

Date/timePositionNaut miles runAvg speedWind from/ knotsBaromVisibWave heightAir tempDewpointWater temp
2015-Sep-01 03:08N 50°35' E 000°17'711.4
2015-Sep-01 02:30N 50°37' E 000°28'1010.4
2015-Sep-01 01:33N 50°42' E 000°42'34 9.6
2015-Aug-31 22:04N 51°02' E 001°24'713.3
2015-Aug-31 21:34N 51°06' E 001°32'1413.7
2015-Aug-31 20:33N 51°16' E 001°48'1211.9
2015-Aug-31 19:33N 51°25' E 002°00'1010.4
2015-Aug-31 18:32N 51°21' E 002°16'1010.2
2015-Aug-31 17:33N 51°23' E 002°32'10 9.6
2015-Aug-31 16:33N 51°22' E 002°47'9 9.4
2015-Aug-31 15:33N 51°22' E 003°02'10 8.6
2015-Aug-31 14:22N 51°24' E 003°18'6 7.8
2015-Aug-31 13:33N 51°25' E 003°28'7 6.5
2015-Aug-31 12:33N 51°26' E 003°38'3 2.6
2015-Aug-31 11:31N 51°27' E 003°42'0 0.0
2015-Aug-31 10:31N 51°27' E 003°42'0 0.0
2015-Aug-31 09:31N 51°27' E 003°42'0 0.0
2015-Aug-31 08:31N 51°27' E 003°42'0 0.0
2015-Aug-31 07:31N 51°27' E 003°42'0 0.0
2015-Aug-31 06:31N 51°27' E 003°42'0 0.0
2015-Aug-31 05:31N 51°27' E 003°42'0 0.0
2015-Aug-31 04:31N 51°27' E 003°42'0 0.0
2015-Aug-31 03:31N 51°27' E 003°42'0 0.0
2015-Aug-31 02:25N 51°27' E 003°42'0 0.0
2015-Aug-31 01:31N 51°27' E 003°42'0 0.0
2015-Aug-31 00:31N 51°27' E 003°42'0 0.0
2015-Aug-30 23:31N 51°27' E 003°42'0 0.0
2015-Aug-30 22:31N 51°27' E 003°42'0 0.0
2015-Aug-30 21:25N 51°27' E 003°42'0 0.0
2015-Aug-30 20:31N 51°27' E 003°42'0 0.0
2015-Aug-30 19:31N 51°27' E 003°42'0 0.0
2015-Aug-30 18:31N 51°27' E 003°42'0 0.0
2015-Aug-30 17:31N 51°27' E 003°42'0 0.0
2015-Aug-30 16:31N 51°27' E 003°42'0 0.0
2015-Aug-30 15:31N 51°27' E 003°42'0 0.0
2015-Aug-30 14:31N 51°27' E 003°42'0 0.0
2015-Aug-30 13:31N 51°27' E 003°42'0 0.0
2015-Aug-30 12:34N 51°27' E 003°42'0 0.0
2015-Aug-30 11:30N 51°27' E 003°42'0 0.0
2015-Aug-30 10:30N 51°27' E 003°42'0 0.0
2015-Aug-30 09:33N 51°27' E 003°42'0 0.0
2015-Aug-30 08:33N 51°27' E 003°42'0 0.0
2015-Aug-30 07:33N 51°27' E 003°42'0 0.0
2015-Aug-30 06:33N 51°27' E 003°42'0 0.0
2015-Aug-30 05:18N 51°27' E 003°42'0 0.0
2015-Aug-30 04:33N 51°27' E 003°42'0 0.0
2015-Aug-30 03:33N 51°27' E 003°42'0 0.0
2015-Aug-30 02:33N 51°27' E 003°42'0 0.0
2015-Aug-30 01:30N 51°27' E 003°42'0 0.0
2015-Aug-30 00:33N 51°27' E 003°42'0 0.0
2015-Aug-29 23:33N 51°27' E 003°42'0 0.0
2015-Aug-29 22:30N 51°27' E 003°42'0 0.0
2015-Aug-29 21:30N 51°27' E 003°42'0 0.0
2015-Aug-29 20:30N 51°27' E 003°42'0 0.0
2015-Aug-29 19:33N 51°27' E 003°42'0 0.0
2015-Aug-29 18:33N 51°27' E 003°42'0 0.0
2015-Aug-29 17:33N 51°27' E 003°42'0 0.0
2015-Aug-29 16:33N 51°27' E 003°42'0 0.0
2015-Aug-29 15:30N 51°27' E 003°42'0 0.0
2015-Aug-29 13:29N 51°27' E 003°42'0 0.0
2015-Aug-29 12:32N 51°27' E 003°42'0 0.0
2015-Aug-29 11:29N 51°27' E 003°42'0 0.0
2015-Aug-29 10:32N 51°27' E 003°42'0 0.0
2015-Aug-29 09:29N 51°27' E 003°42'0 0.0
2015-Aug-29 08:32N 51°27' E 003°42'0 0.0
2015-Aug-29 07:32N 51°27' E 003°42'0 0.0
2015-Aug-29 06:28N 51°27' E 003°42'0 0.0
2015-Aug-29 05:32N 51°27' E 003°42'0 0.0
2015-Aug-29 04:31N 51°27' E 003°42'0 0.0
2015-Aug-29 03:31N 51°27' E 003°42'0 0.0
2015-Aug-29 02:32N 51°27' E 003°42'1 1.3
2015-Aug-29 01:33N 51°27' E 003°40'9 9.1
2015-Aug-29 00:33N 51°23' E 003°53'6 6.0
2015-Aug-28 23:33N 51°25' E 004°02'7 7.1
2015-Aug-28 22:33N 51°23' E 004°13'7 7.1
2015-Aug-28 21:32N 51°17' E 004°20'2 1.6
2015-Aug-28 20:33N 51°15' E 004°21'2 1.5
2015-Aug-28 19:32N 51°15' E 004°24'0 0.0
2015-Aug-28 18:32N 51°15' E 004°24'0 0.0
2015-Aug-28 17:32N 51°15' E 004°24'0 0.0
2015-Aug-28 16:32N 51°15' E 004°24'0 0.0
2015-Aug-28 15:32N 51°15' E 004°24'0 0.0
2015-Aug-28 14:32N 51°15' E 004°24'0 0.0
2015-Aug-28 13:32N 51°15' E 004°24'0 0.0
2015-Aug-28 12:32N 51°15' E 004°24'0 0.0
2015-Aug-28 11:32N 51°15' E 004°24'0 0.0
2015-Aug-28 10:32N 51°15' E 004°24'0 0.0
2015-Aug-28 09:32N 51°15' E 004°24'0 0.0
2015-Aug-28 08:32N 51°15' E 004°24'0 0.0
2015-Aug-28 07:32N 51°15' E 004°24'0 0.3
2015-Aug-28 06:32N 51°15' E 004°24'0 0.0
2015-Aug-28 05:32N 51°15' E 004°24'0 0.0
2015-Aug-28 04:32N 51°15' E 004°24'0 0.0
2015-Aug-28 03:32N 51°15' E 004°24'0 0.0
2015-Aug-28 02:32N 51°15' E 004°24'0 0.0
2015-Aug-28 01:32N 51°15' E 004°24'0 0.0
2015-Aug-28 00:32N 51°15' E 004°24'0 0.0
2015-Aug-27 23:32N 51°15' E 004°24'0 0.5
2015-Aug-27 22:34N 51°15' E 004°23'3 2.8
2015-Aug-27 21:34N 51°17' E 004°20'5 4.9
2015-Aug-27 20:33N 51°21' E 004°16'9 8.5
2015-Aug-27 19:33N 51°23' E 004°02'6 5.5
2015-Aug-27 18:33N 51°21' E 003°54'8 8.1
2015-Aug-27 17:33N 51°24' E 003°42'8 8.1
2015-Aug-27 16:33N 51°24' E 003°29'8 8.0
2015-Aug-27 15:32N 51°23' E 003°16'9 9.2
2015-Aug-27 14:33N 51°22' E 003°01'1010.1
2015-Aug-27 13:33N 51°22' E 002°45'6 4.7
2015-Aug-27 12:15N 51°22' E 002°35'4 5.5
2015-Aug-27 11:33N 51°22' E 002°29'1211.6
2015-Aug-27 10:33N 51°16' E 002°13'1212.2
2015-Aug-27 09:33N 51°10' E 001°56'1312.6
2015-Aug-27 08:33N 51°03' E 001°40'99 8.0
2015-Aug-26 20:09N 50°37' W 000°51'6 9.5
2015-Aug-26 19:33N 50°41' W 000°57'10 9.9
2015-Aug-26 18:33N 50°46' W 001°10'13 0.5
2015-Aug-25 18:23N 50°55' W 001°27'0 0.0
2015-Aug-25 14:26N 50°55' W 001°27'1 1.0
2015-Aug-25 13:33N 50°54' W 001°25'8 8.3
2015-Aug-25 12:33N 50°47' W 001°20'5 0.9
2015-Aug-25 07:34N 50°44' W 001°26'9 8.8
2015-Aug-25 06:33N 50°39' W 001°37'1111.1
2015-Aug-25 05:31N 50°31' W 001°49'40 8.1
2015-Aug-25 00:33N 50°19' W 002°50'6 6.2
2015-Aug-24 23:34N 50°17' W 002°59'6 6.1
2015-Aug-24 22:34N 50°15' W 003°08'7 6.6
2015-Aug-24 21:34N 50°14' W 003°18'8 6.6
2015-Aug-24 20:20N 50°12' W 003°30'26 5.5
2015-Aug-24 15:34N 50°22' W 004°08'1 0.5
2015-Aug-24 14:31N 50°22' W 004°07'0 0.0
2015-Aug-24 13:28N 50°22' W 004°07'0 0.0
2015-Aug-24 12:34N 50°22' W 004°07'0 0.0
2015-Aug-24 11:34N 50°22' W 004°07'0 0.0
2015-Aug-24 10:33N 50°22' W 004°07'0 0.0
2015-Aug-24 09:34N 50°22' W 004°07'0 0.0
2015-Aug-24 08:33N 50°22' W 004°07'0 0.0
2015-Aug-24 07:34N 50°22' W 004°07'0 0.0
2015-Aug-24 06:20N 50°22' W 004°07'0 0.0
2015-Aug-24 05:33N 50°22' W 004°07'0 0.3
2015-Aug-24 04:34N 50°22' W 004°07'126 5.6
2015-Aug-23 06:06N 52°11' W 005°48'711.5
2015-Aug-23 05:31N 52°17' W 005°46'12010.0
2015-Aug-22 17:33N 54°16' W 005°15'1010.1
2015-Aug-22 16:33N 54°26' W 005°15'1010.3
2015-Aug-22 15:33N 54°35' W 005°22'1010.0
2015-Aug-22 14:34N 54°43' W 005°33'1010.0
2015-Aug-22 13:34N 54°40' W 005°50'4 3.7
2015-Aug-22 12:29N 54°37' W 005°54'0 0.0
2015-Aug-22 11:32N 54°37' W 005°54'0 0.0
2015-Aug-22 10:32N 54°37' W 005°54'0 0.0
2015-Aug-22 09:29N 54°37' W 005°54'0 0.0
2015-Aug-22 08:32N 54°37' W 005°54'0 0.0
2015-Aug-22 07:32N 54°37' W 005°54'0 0.0
2015-Aug-22 06:29N 54°37' W 005°54'0 0.0
2015-Aug-22 05:32N 54°37' W 005°54'0 0.0
2015-Aug-22 04:32N 54°37' W 005°54'0 0.0
2015-Aug-22 03:33N 54°37' W 005°54'  

Dump ship's entire track history